Kurgan, Russia
Current Conditions -  °F | °C
As of 5:00 PM on Friday 28 Nov 2014 (Local Time) from USTR Reporting Station
Clear Clear  
Wind Chill: -17°   Ceiling: Unl
Heat Index:   Visibility: 6mi
Dew Point: -2°   Wind: 13mph
Humidity: 85%   Direction: 190°S
Pressure: 30.53"   Gusts: NA
Location:  55.45°N, 65.33°E
Report Text: USTR 281200Z 19006MPS CAVOK M17/M19 Q1034 NOSIG RMK QFE767/102312450355 21CLRD65
Loading
Personal Weather Stations






























Interactive Weather Map New forecast layout! Learn more

10-Day Weather Forecast

Advertisements
Track Severe Weather on mobile